Wausau, WI

3:53 PM CST on January 23, 2017 (GMT -0600)
Wausau Downtown | | Change Station

Elev 1201 ft 44.93 °N, 89.63 °W | Updated 59 minutes ago

Overcast
Overcast
35 °F
Feels Like 31 °F
N
5
Wind Variable Wind from WNW

Today
High -- | Low -- °F
--% Chance of Precip.
Yesterday
High -- | Low -- °F
Precip. -- in
Pressure 29.79 in
Visibility 10.0 miles
Clouds Overcast 900 ft
Windchill 31 °F
Dew Point 33 °F
Humidity 92%
Rainfall 0.00 in
Snow Depth Not available.
7:26 AM 4:54 PM
Waning Crescent, 16% visible
METAR KAUW 232054Z AUTO 29004KT 10SM OVC009 02/01 A2974 RMK AO2 SLP086 T00170006 55004
Pressure 29.79 in
Visibility 10.0 miles
Clouds Overcast 900 ft
Windchill 31 °F
Dew Point 33 °F
Humidity 92%
Rainfall 0.00 in
Snow Depth Not available.
7:26 AM 4:54 PM
Waning Crescent, 16% visible
METAR KAUW 232054Z AUTO 29004KT 10SM OVC009 02/01 A2974 RMK AO2 SLP086 T00170006 55004

Get Your Daily Forecast Email!

Thanks for signing up!

Be on the lookout for a verification email in your inbox.

You'll start receiving the daily forecast at 8 AM.

×

10-Day Weather Forecast

Almanac

Astronomy

Jan. 23, 2017 Rise Set
Actual Time
Civil Twilight
Nautical Twilight
Astronomical Twilight
Moon
Length of Visible Light
Length of Day
Tomorrow will be .
, % of the Moon is Illuminated

Today's Extremes

State Highs State Lows

Community

WunderPhotos

Upload Photos

1,962,540 photos uploaded!

WunderBlog® & News

Nearby

Air Quality

  Air Quality AQ Index Pollutant
Not available.

Snow Depth

Station Depth Elevation

Earthquake Activity

City Distance Mag. Time & Date
Minimum magnitude displayed is 2.5.

Coastal Water Temperatures

Place Temperature

Stations

Nearby Weather Stations

Station Location Temp. Windchill Dew Point Humidity Wind Precip. Elev Updated Type
                   

Watches & Warnings

There are currently no watches in effect.